Main page
METAR-TAF:

METAR-TAF

Airports :

Esfahān, Iran

Isfahan International Airport

latitude: 32-28N, longitude: 051-43E, elevation: 1590 m

Current weather observation

The report was made 31 minutes ago, at 22:00 UTC
Wind 4 kt from the West
Temperature 4°C
Humidity 28%
Pressure 1023 hPa
Visibility 10 km or more
no clouds below 1500 m and no cumulonimbus

METAR: OIFM 232200Z 27004KT CAVOK 04/M13 Q1023 A3022

Time: 02:01 (22:31 UTC)

Forecast

The report was made 5 hours and 1 minutes ago, at 17:30 UTC
Forecast valid from 23 at 18 UTC to 24 at 24 UTC
Wind 6 kt from the North/Northwest
Visibility 10 km or more
no clouds below 1500 m and no cumulonimbus

TAF: OIFM 231730Z 2318/2424 33003MPS CAVOK

Weather observations and forecasts of more than 4000 airports (METAR and TAF reports).

The available stations are represented by yellow and red dots on the map.

Hover mouse over dot to see the name of the station.

Then click to see weather observations and forecasts.

To change the map : click on the green buttons with a black cross to zoom in, on the green button with a dash to zoom out, or on the green arrows for adjacent maps.


METAR-TAF: